Time;durP1;ratioP1;P1;durP2;ratioP2;P2;SDS_P1;SDS_P2;PMS_P1;PMS_P2;Temp;Humidity;BMP_temperature;BMP_pressure;BME280_temperature;BME280_humidity;BME280_pressure;Samples;Min_cycle;Max_cycle;Signal;HPM_P1;HPM_P2
2021/03/04 00:01:00;;;;;;;3.00;2.00;;;22.00;30.50;;;;;;4972994;28;20388;-62
2021/03/04 00:03:26;;;;;;;3.10;1.63;;;21.90;30.50;;;;;;4971918;28;20416;-61
2021/03/04 00:05:52;;;;;;;2.63;1.60;;;21.90;30.50;;;;;;4973235;28;20492;-61
2021/03/04 00:08:19;;;;;;;2.50;1.73;;;21.90;30.50;;;;;;4973155;28;20391;-61
2021/03/04 00:10:45;;;;;;;2.30;1.70;;;21.90;30.50;;;;;;4972792;28;20404;-61
2021/03/04 00:13:10;;;;;;;2.50;1.77;;;21.90;30.50;;;;;;4973191;28;20987;-61
2021/03/04 00:15:38;;;;;;;2.40;1.70;;;21.90;30.40;;;;;;4972956;28;20899;-61
2021/03/04 00:18:04;;;;;;;2.80;1.65;;;21.90;30.40;;;;;;4973050;28;20400;-61
2021/03/04 00:20:32;;;;;;;2.58;1.90;;;21.90;30.40;;;;;;4973129;28;20392;-61
2021/03/04 00:22:58;;;;;;;2.90;1.80;;;21.90;30.30;;;;;;4972591;28;20396;-61
2021/03/04 00:25:33;;;;;;;2.25;1.70;;;21.90;30.40;;;;;;4973217;28;20435;-61
2021/03/04 00:27:58;;;;;;;3.10;1.80;;;21.90;30.30;;;;;;4973096;28;20381;-61
2021/03/04 00:30:25;;;;;;;2.83;1.80;;;21.90;30.30;;;;;;4973116;28;20388;-62
2021/03/04 00:32:50;;;;;;;2.40;1.70;;;21.90;30.30;;;;;;4972624;28;20880;-61
2021/03/04 00:35:16;;;;;;;2.35;1.60;;;21.80;30.30;;;;;;4972871;28;20397;-61
2021/03/04 00:37:42;;;;;;;2.47;1.70;;;21.80;30.30;;;;;;4972919;28;20547;-61
2021/03/04 00:40:11;;;;;;;2.63;1.70;;;21.80;30.20;;;;;;4973003;28;20461;-61
2021/03/04 00:42:37;;;;;;;2.08;1.70;;;21.80;30.20;;;;;;4972889;28;20399;-62
2021/03/04 00:45:12;;;;;;;2.47;1.67;;;21.80;30.20;;;;;;4972506;28;20464;-61
2021/03/04 00:47:38;;;;;;;2.50;1.70;;;21.80;30.20;;;;;;4972744;28;20398;-61
2021/03/04 00:50:07;;;;;;;2.38;1.88;;;21.80;30.20;;;;;;4972754;28;20392;-62
2021/03/04 00:52:33;;;;;;;2.72;1.60;;;21.80;30.20;;;;;;4972739;28;20411;-62
2021/03/04 00:54:59;;;;;;;2.50;1.63;;;21.80;30.20;;;;;;4972382;28;20388;-61
2021/03/04 00:57:24;;;;;;;2.20;1.70;;;21.80;30.10;;;;;;4972385;28;20400;-61
2021/03/04 00:59:50;;;;;;;2.30;1.75;;;21.80;30.20;;;;;;4972982;28;20391;-61
2021/03/04 01:02:16;;;;;;;2.30;1.70;;;21.80;30.20;;;;;;4972611;28;20399;-61
2021/03/04 01:04:42;;;;;;;2.08;1.60;;;21.80;30.20;;;;;;4972115;28;20503;-61
2021/03/04 01:07:08;;;;;;;2.20;1.70;;;21.80;30.20;;;;;;4972444;28;20482;-61
2021/03/04 01:09:33;;;;;;;2.42;1.75;;;21.80;30.20;;;;;;4972542;28;20531;-61
2021/03/04 01:11:59;;;;;;;2.37;1.77;;;21.80;30.10;;;;;;4975082;28;21047;-61
2021/03/04 01:14:25;;;;;;;2.22;1.67;;;21.80;30.10;;;;;;4976254;28;20473;-61
2021/03/04 01:16:50;;;;;;;2.43;1.90;;;21.80;30.10;;;;;;4975940;28;20773;-61
2021/03/04 01:19:16;;;;;;;2.60;1.70;;;21.70;30.10;;;;;;4976513;28;20392;-61
2021/03/04 01:21:41;;;;;;;2.50;1.73;;;21.70;30.10;;;;;;4976248;28;20424;-62
2021/03/04 01:24:08;;;;;;;2.40;1.52;;;21.70;30.00;;;;;;4976212;28;20452;-61
2021/03/04 01:26:35;;;;;;;2.45;1.50;;;21.70;30.00;;;;;;4976266;28;20404;-61
2021/03/04 01:29:01;;;;;;;2.10;1.60;;;21.70;30.00;;;;;;4975935;28;20439;-62
2021/03/04 01:31:27;;;;;;;2.60;1.70;;;21.80;30.10;;;;;;4976114;28;20415;-62
2021/03/04 01:33:52;;;;;;;2.63;1.63;;;21.70;30.00;;;;;;4976069;28;20431;-62
2021/03/04 01:36:18;;;;;;;2.10;1.60;;;21.70;30.00;;;;;;4976206;28;20428;-62
2021/03/04 01:38:43;;;;;;;2.30;1.60;;;21.70;30.10;;;;;;4975561;28;20752;-61
2021/03/04 01:41:09;;;;;;;2.43;1.70;;;21.70;30.00;;;;;;4976064;28;20411;-62
2021/03/04 01:43:35;;;;;;;2.20;1.67;;;21.70;30.00;;;;;;4975871;28;20892;-62
2021/03/04 01:46:00;;;;;;;2.17;1.70;;;21.70;30.00;;;;;;4975961;28;20408;-62
2021/03/04 01:48:26;;;;;;;2.17;1.60;;;21.70;30.00;;;;;;4975928;28;20805;-62
2021/03/04 01:50:52;;;;;;;2.20;1.60;;;21.70;30.00;;;;;;4975447;28;20443;-62
2021/03/04 01:53:18;;;;;;;2.10;1.57;;;21.70;30.00;;;;;;4975812;28;20419;-61
2021/03/04 01:55:44;;;;;;;1.90;1.42;;;21.60;30.00;;;;;;4974470;28;20478;-61
2021/03/04 01:58:10;;;;;;;1.90;1.50;;;21.60;30.00;;;;;;4975791;28;20915;-61
2021/03/04 02:03:57;;;;;;;2.42;1.70;;;21.70;30.00;;;;;;4975759;28;20454;-61
2021/03/04 02:06:35;;;;;;;2.07;1.53;;;21.60;30.00;;;;;;4975647;28;20400;-61
2021/03/04 02:09:02;;;;;;;2.08;1.60;;;21.70;30.00;;;;;;4975071;28;20404;-61
2021/03/04 02:11:34;;;;;;;2.40;1.60;;;21.60;30.00;;;;;;4975510;28;20400;-61
2021/03/04 02:14:13;;;;;;;2.35;1.60;;;21.60;30.00;;;;;;4975254;28;20466;-61
2021/03/04 02:16:44;;;;;;;2.25;1.50;;;21.60;30.00;;;;;;4975337;28;20872;-61
2021/03/04 02:19:43;;;;;;;1.85;1.50;;;21.60;30.00;;;;;;4975187;28;20392;-61
2021/03/04 02:22:15;;;;;;;2.17;1.52;;;21.60;30.00;;;;;;4974762;28;20420;-61
2021/03/04 02:25:19;;;;;;;1.80;1.40;;;21.60;29.90;;;;;;4974861;28;20427;-62
2021/03/04 02:27:49;;;;;;;2.10;1.57;;;21.60;30.00;;;;;;4959749;28;20422;-61
2021/03/04 02:30:18;;;;;;;1.80;1.30;;;21.60;29.90;;;;;;4975225;28;20396;-61
2021/03/04 02:32:58;;;;;;;1.75;1.40;;;21.60;29.90;;;;;;4974777;28;20388;-61
2021/03/04 02:35:29;;;;;;;2.22;1.50;;;21.60;29.90;;;;;;4975099;28;20404;-61
2021/03/04 02:38:06;;;;;;;2.15;1.50;;;21.60;29.90;;;;;;4974970;28;20959;-61
2021/03/04 02:40:33;;;;;;;1.95;1.48;;;21.60;30.00;;;;;;4974870;28;20463;-62
2021/03/04 02:43:05;;;;;;;1.88;1.50;;;21.60;30.00;;;;;;4974410;28;20385;-61
2021/03/04 02:45:31;;;;;;;1.60;1.40;;;21.60;30.00;;;;;;4974926;28;20455;-61
2021/03/04 02:47:56;;;;;;;2.00;1.50;;;21.60;30.00;;;;;;4974761;28;20396;-61
2021/03/04 02:50:24;;;;;;;1.93;1.30;;;21.50;29.90;;;;;;4974958;28;20758;-61
2021/03/04 02:52:51;;;;;;;1.80;1.40;;;21.60;29.90;;;;;;4974284;28;20396;-62
2021/03/04 02:55:18;;;;;;;2.45;1.60;;;21.50;29.90;;;;;;4974824;28;20392;-61
2021/03/04 02:57:46;;;;;;;2.05;1.50;;;21.50;29.90;;;;;;4974658;28;20424;-61
2021/03/04 03:00:15;;;;;;;2.00;1.40;;;21.50;29.90;;;;;;4974415;28;20943;-61
2021/03/04 03:02:43;;;;;;;2.00;1.40;;;21.50;29.90;;;;;;4974649;28;20392;-62
2021/03/04 03:05:11;;;;;;;1.90;1.40;;;21.50;29.90;;;;;;4974281;28;20431;-62
2021/03/04 03:07:39;;;;;;;2.00;1.40;;;21.50;29.90;;;;;;4974360;28;20429;-62
2021/03/04 03:10:07;;;;;;;2.47;1.50;;;21.50;29.90;;;;;;4974364;28;20991;-62
2021/03/04 03:12:35;;;;;;;2.00;1.40;;;21.50;29.90;;;;;;4974224;28;20399;-61
2021/03/04 03:15:04;;;;;;;2.10;1.50;;;21.50;29.90;;;;;;4973882;28;20403;-61
2021/03/04 03:17:30;;;;;;;1.70;1.40;;;21.50;29.90;;;;;;4974378;28;20404;-62
2021/03/04 03:19:55;;;;;;;2.40;1.58;;;21.50;29.90;;;;;;4974241;28;20392;-61
2021/03/04 03:22:21;;;;;;;1.80;1.47;;;21.50;29.90;;;;;;4974134;28;20388;-61
2021/03/04 03:24:47;;;;;;;1.80;1.42;;;21.50;29.80;;;;;;4973836;28;20523;-61
2021/03/04 03:27:12;;;;;;;2.00;1.33;;;21.50;29.80;;;;;;4973946;28;20409;-61
2021/03/04 03:29:38;;;;;;;2.00;1.40;;;21.50;29.90;;;;;;4973762;28;20992;-61
2021/03/04 03:32:05;;;;;;;2.27;1.50;;;21.50;29.80;;;;;;4973066;28;20428;-61
2021/03/04 03:34:31;;;;;;;2.50;1.40;;;21.50;29.90;;;;;;4972816;28;20911;-61
2021/03/04 03:36:57;;;;;;;2.03;1.50;;;21.50;29.80;;;;;;4973020;28;20396;-62
2021/03/04 03:39:24;;;;;;;2.00;1.50;;;21.50;29.90;;;;;;4973551;28;20762;-61
2021/03/04 03:41:50;;;;;;;1.90;1.50;;;21.50;29.90;;;;;;4973609;28;20904;-61
2021/03/04 03:44:17;;;;;;;2.10;1.60;;;21.50;29.80;;;;;;4973685;28;20431;-61
2021/03/04 03:46:44;;;;;;;2.20;1.50;;;21.50;29.80;;;;;;4973771;28;20396;-61
2021/03/04 03:49:11;;;;;;;1.90;1.50;;;21.50;29.90;;;;;;4973473;28;20400;-61
2021/03/04 03:51:37;;;;;;;1.80;1.33;;;21.40;29.80;;;;;;4973733;28;20407;-61
2021/03/04 03:54:05;;;;;;;2.10;1.50;;;21.40;29.80;;;;;;4973549;28;20507;-61
2021/03/04 03:56:32;;;;;;;2.10;1.45;;;21.40;29.80;;;;;;4973405;28;20760;-62
2021/03/04 03:58:59;;;;;;;2.00;1.60;;;21.40;29.80;;;;;;4973018;28;20419;-62
2021/03/04 04:01:33;;;;;;;2.30;1.60;;;21.40;29.80;;;;;;4973399;28;20400;-62
2021/03/04 04:03:59;;;;;;;2.60;1.70;;;21.40;29.80;;;;;;4977568;28;20755;-61
2021/03/04 04:06:27;;;;;;;2.33;1.50;;;21.40;29.80;;;;;;4992950;28;20425;-61
2021/03/04 04:08:53;;;;;;;2.78;1.77;;;21.40;30.00;;;;;;4992338;28;20425;-62
2021/03/04 04:11:27;;;;;;;2.10;1.50;;;21.20;30.20;;;;;;4992795;28;20397;-62
2021/03/04 04:13:54;;;;;;;3.07;1.60;;;21.20;30.60;;;;;;4992580;28;20450;-61
2021/03/04 04:16:20;;;;;;;2.72;1.77;;;21.30;30.40;;;;;;4993549;28;20874;-62
2021/03/04 04:18:46;;;;;;;2.58;1.65;;;21.30;30.40;;;;;;4991788;28;20403;-62
2021/03/04 04:21:13;;;;;;;2.85;1.70;;;21.30;30.60;;;;;;4992119;28;20399;-62
2021/03/04 04:23:40;;;;;;;2.80;1.70;;;21.30;32.00;;;;;;4992138;28;20410;-62
2021/03/04 04:26:06;;;;;;;5.40;1.58;;;21.40;31.30;;;;;;4991733;28;20453;-63
2021/03/04 04:28:32;;;;;;;5.25;1.70;;;21.50;32.60;;;;;;4983400;28;20396;-62
2021/03/04 04:30:57;;;;;;;2.93;2.07;;;21.50;32.90;;;;;;4989423;28;20417;-63
2021/03/04 04:33:23;;;;;;;3.83;1.80;;;21.50;32.30;;;;;;4991728;28;20397;-62
2021/03/04 04:35:49;;;;;;;3.97;1.75;;;21.50;32.30;;;;;;4991360;28;20474;-63
2021/03/04 04:38:15;;;;;;;5.72;1.70;;;21.50;32.70;;;;;;4992714;28;20493;-62
2021/03/04 04:40:41;;;;;;;4.40;1.80;;;21.50;32.10;;;;;;4990520;28;20864;-62
2021/03/04 04:43:07;;;;;;;4.00;1.50;;;21.50;32.60;;;;;;4991123;28;21057;-63
2021/03/04 04:45:33;;;;;;;2.75;1.50;;;21.60;32.60;;;;;;4991961;28;20890;-63
2021/03/04 04:47:58;;;;;;;5.80;1.90;;;21.60;32.70;;;;;;4991259;28;20386;-62
2021/03/04 04:50:24;;;;;;;4.07;1.70;;;21.60;33.00;;;;;;4990893;28;20438;-62
2021/03/04 04:52:50;;;;;;;4.07;1.85;;;21.60;32.50;;;;;;4989827;28;20389;-62
2021/03/04 04:55:15;;;;;;;2.83;1.57;;;21.50;32.80;;;;;;4989971;28;20398;-62
2021/03/04 04:57:41;;;;;;;4.85;1.50;;;21.50;31.80;;;;;;4990114;28;20402;-62
2021/03/04 05:00:09;;;;;;;4.07;1.40;;;21.50;32.30;;;;;;4990305;28;20393;-62
2021/03/04 05:02:35;;;;;;;6.82;1.50;;;21.50;32.50;;;;;;4990483;28;20390;-62
2021/03/04 05:05:02;;;;;;;4.72;1.75;;;21.50;31.10;;;;;;4991488;28;20419;-62
2021/03/04 05:07:27;;;;;;;3.88;1.75;;;21.50;31.10;;;;;;4992075;28;20473;-62
2021/03/04 05:09:53;;;;;;;10.37;1.90;;;21.40;30.90;;;;;;4991739;28;20422;-62
2021/03/04 05:12:19;;;;;;;5.82;1.88;;;21.40;31.80;;;;;;4991789;28;20386;-63
2021/03/04 05:14:45;;;;;;;4.00;1.50;;;21.40;30.90;;;;;;4991835;28;20516;-63
2021/03/04 05:17:11;;;;;;;5.78;1.77;;;21.40;30.80;;;;;;4991425;28;20398;-63
2021/03/04 05:19:37;;;;;;;5.40;1.70;;;21.40;30.70;;;;;;4991945;28;20394;-62
2021/03/04 05:22:03;;;;;;;3.30;1.60;;;21.40;30.60;;;;;;4991909;28;20398;-62
2021/03/04 05:24:29;;;;;;;4.97;1.63;;;21.40;30.60;;;;;;4991908;28;20418;-62
2021/03/04 05:26:55;;;;;;;5.22;1.60;;;21.40;30.60;;;;;;4990170;28;20448;-63
2021/03/04 05:29:20;;;;;;;3.50;1.60;;;21.40;30.50;;;;;;4991886;28;20394;-62
2021/03/04 05:31:46;;;;;;;2.50;1.50;;;21.40;30.40;;;;;;4982137;28;20400;-62
2021/03/04 05:34:12;;;;;;;3.50;1.58;;;21.40;30.40;;;;;;4972346;28;20427;-62
2021/03/04 05:36:37;;;;;;;5.33;1.50;;;21.40;30.30;;;;;;4987202;28;20387;-62
2021/03/04 05:39:03;;;;;;;3.63;1.63;;;21.40;30.20;;;;;;4991203;28;20394;-62
2021/03/04 05:41:30;;;;;;;3.35;1.55;;;21.40;30.20;;;;;;4991735;28;20393;-62
2021/03/04 05:43:56;;;;;;;2.22;1.40;;;21.40;30.10;;;;;;4991700;28;20473;-62
2021/03/04 05:46:22;;;;;;;3.70;1.65;;;21.40;30.10;;;;;;4978200;28;20768;-62
2021/03/04 05:48:50;;;;;;;3.00;1.40;;;21.40;30.10;;;;;;4972395;28;20407;-62
2021/03/04 05:51:23;;;;;;;3.20;1.50;;;21.40;30.10;;;;;;4972221;28;21128;-62
2021/03/04 05:53:55;;;;;;;3.42;1.40;;;21.40;30.20;;;;;;4972244;28;20487;-62
2021/03/04 05:56:21;;;;;;;3.53;1.52;;;21.40;30.20;;;;;;4977239;28;20395;-62
2021/03/04 05:58:47;;;;;;;2.70;1.60;;;21.30;30.10;;;;;;4990194;28;20481;-63
2021/03/04 06:01:14;;;;;;;3.80;2.00;;;21.30;30.10;;;;;;4991079;28;20426;-62
2021/03/04 06:03:40;;;;;;;3.78;1.90;;;21.30;29.90;;;;;;4981299;28;20453;-63
2021/03/04 06:06:07;;;;;;;4.70;1.85;;;21.30;30.00;;;;;;4995038;28;20398;-63
2021/03/04 06:08:33;;;;;;;3.45;2.30;;;21.20;29.90;;;;;;4994436;28;20399;-63
2021/03/04 06:11:03;;;;;;;4.93;2.10;;;21.20;29.80;;;;;;4994391;28;20780;-62
2021/03/04 06:13:30;;;;;;;5.27;1.70;;;21.30;29.80;;;;;;4994756;28;20417;-63
2021/03/04 06:15:56;;;;;;;4.38;1.90;;;21.20;29.80;;;;;;4994911;28;20477;-63
2021/03/04 06:18:22;;;;;;;5.28;1.90;;;21.20;29.90;;;;;;4994805;28;20397;-62
2021/03/04 06:20:48;;;;;;;4.07;1.83;;;21.20;30.00;;;;;;4994787;28;20417;-62
2021/03/04 06:23:14;;;;;;;3.67;2.13;;;21.20;30.00;;;;;;4994154;28;20815;-62
2021/03/04 06:25:40;;;;;;;6.47;2.35;;;21.20;30.00;;;;;;4994675;28;20809;-62
2021/03/04 06:28:09;;;;;;;4.30;2.00;;;21.20;30.10;;;;;;4994777;28;20387;-62
2021/03/04 06:30:40;;;;;;;4.25;1.90;;;21.20;30.10;;;;;;4994509;28;20473;-62
2021/03/04 06:33:08;;;;;;;3.03;1.70;;;21.20;30.30;;;;;;4994200;28;20867;-63
2021/03/04 06:35:46;;;;;;;4.50;1.80;;;21.20;30.30;;;;;;4994541;28;20398;-62
2021/03/04 06:38:17;;;;;;;4.90;2.00;;;21.10;30.30;;;;;;4994531;28;20383;-62
2021/03/04 06:40:44;;;;;;;2.97;1.73;;;21.20;30.40;;;;;;4994101;28;20402;-63
2021/03/04 06:43:19;;;;;;;3.58;1.83;;;21.10;30.40;;;;;;4993882;28;20423;-62
2021/03/04 06:45:45;;;;;;;3.55;1.80;;;21.10;30.50;;;;;;4994291;28;20798;-62
2021/03/04 06:48:14;;;;;;;4.10;1.70;;;21.10;30.50;;;;;;4994378;28;20383;-62
2021/03/04 06:50:57;;;;;;;3.83;2.10;;;21.10;30.50;;;;;;4994288;28;20399;-62
2021/03/04 06:53:24;;;;;;;3.58;1.80;;;21.10;30.60;;;;;;4994082;28;20383;-62
2021/03/04 06:55:54;;;;;;;3.45;1.90;;;21.10;31.20;;;;;;4994166;28;20910;-62
2021/03/04 06:58:39;;;;;;;3.72;1.90;;;21.10;30.50;;;;;;4994241;28;20474;-63
2021/03/04 07:01:13;;;;;;;4.18;1.80;;;21.10;30.60;;;;;;4993604;28;20403;-62
2021/03/04 07:03:39;;;;;;;3.05;1.80;;;21.10;30.60;;;;;;4993754;28;20891;-63
2021/03/04 07:06:07;;;;;;;3.80;2.13;;;21.10;30.60;;;;;;4994072;28;20402;-62
2021/03/04 07:08:35;;;;;;;2.45;1.70;;;21.00;30.60;;;;;;4993989;28;20441;-62
2021/03/04 07:11:09;;;;;;;3.45;1.73;;;21.00;30.60;;;;;;4993459;28;20422;-62
2021/03/04 07:13:37;;;;;;;4.25;1.83;;;21.00;30.70;;;;;;4993662;28;20402;-62
2021/03/04 07:16:07;;;;;;;2.80;1.98;;;21.00;30.60;;;;;;4993883;28;20394;-62
2021/03/04 07:18:51;;;;;;;3.40;2.00;;;21.00;30.60;;;;;;4993759;28;20501;-62
2021/03/04 07:21:18;;;;;;;3.20;2.00;;;21.00;30.60;;;;;;4993500;28;20399;-62
2021/03/04 07:23:46;;;;;;;2.78;1.90;;;21.00;30.60;;;;;;4993837;28;20441;-63
2021/03/04 07:26:13;;;;;;;2.88;1.90;;;21.00;30.70;;;;;;4993657;28;20391;-63
2021/03/04 07:28:42;;;;;;;3.00;1.80;;;21.00;30.70;;;;;;4993525;28;20414;-63
2021/03/04 07:31:10;;;;;;;3.15;1.90;;;21.00;30.70;;;;;;4993177;28;20387;-63
2021/03/04 07:33:38;;;;;;;3.40;1.90;;;21.00;30.70;;;;;;4993344;28;20391;-63
2021/03/04 07:36:09;;;;;;;2.72;2.00;;;21.00;30.70;;;;;;4993726;28;20398;-63
2021/03/04 07:38:36;;;;;;;3.05;2.05;;;21.00;30.70;;;;;;4993375;28;20436;-63
2021/03/04 07:41:13;;;;;;;3.22;2.00;;;21.00;30.70;;;;;;4993011;28;20743;-63
2021/03/04 07:43:49;;;;;;;3.42;2.03;;;21.00;30.70;;;;;;4993146;28;20421;-62
2021/03/04 07:46:39;;;;;;;3.80;2.10;;;21.00;30.70;;;;;;4993540;28;20402;-63
2021/03/04 07:49:07;;;;;;;2.90;1.98;;;21.00;30.70;;;;;;4992716;28;20762;-62
2021/03/04 07:51:47;;;;;;;2.70;1.93;;;21.00;30.70;;;;;;4993161;28;20407;-63
2021/03/04 07:54:28;;;;;;;3.33;2.20;;;21.00;30.70;;;;;;4993161;28;20485;-63
2021/03/04 07:57:11;;;;;;;3.08;2.10;;;21.00;30.70;;;;;;4992337;28;20892;-63
2021/03/04 07:59:58;;;;;;;2.95;2.10;;;21.00;30.70;;;;;;4992720;28;20473;-63
2021/03/04 08:02:35;;;;;;;2.83;2.03;;;20.90;30.70;;;;;;4992938;28;20383;-63
2021/03/04 08:05:10;;;;;;;3.67;2.30;;;20.90;30.70;;;;;;4992565;28;20422;-63
2021/03/04 08:07:37;;;;;;;2.67;1.85;;;20.90;30.70;;;;;;4991924;28;20422;-62
2021/03/04 08:10:24;;;;;;;3.20;2.30;;;20.90;30.80;;;;;;4992851;28;20485;-62
2021/03/04 08:12:51;;;;;;;2.88;2.10;;;20.90;30.80;;;;;;4992301;28;20509;-62
2021/03/04 08:15:19;;;;;;;3.47;2.20;;;20.90;30.80;;;;;;4992343;28;20414;-62
2021/03/04 08:17:45;;;;;;;2.97;2.10;;;20.90;30.90;;;;;;4992638;28;20387;-62
2021/03/04 08:20:16;;;;;;;3.20;2.20;;;20.90;30.90;;;;;;4992195;28;20452;-62
2021/03/04 08:22:50;;;;;;;3.35;2.15;;;20.90;30.90;;;;;;4992436;28;20806;-62
2021/03/04 08:25:30;;;;;;;2.80;1.92;;;20.90;30.90;;;;;;4992055;28;20446;-63
2021/03/04 08:27:59;;;;;;;2.83;2.30;;;20.90;30.80;;;;;;4992599;28;20394;-62
2021/03/04 08:30:25;;;;;;;2.80;2.15;;;20.90;30.80;;;;;;4992465;28;20758;-62
2021/03/04 08:32:54;;;;;;;2.58;2.03;;;20.90;30.80;;;;;;4992642;28;20503;-62
2021/03/04 08:35:20;;;;;;;3.28;2.20;;;20.90;30.80;;;;;;4991991;28;20397;-62
2021/03/04 08:37:46;;;;;;;3.87;2.40;;;20.90;30.80;;;;;;4992355;28;20408;-62
2021/03/04 08:40:12;;;;;;;3.00;1.90;;;20.90;30.80;;;;;;4992155;28;20398;-62
2021/03/04 08:42:38;;;;;;;4.03;2.20;;;20.90;30.80;;;;;;4991672;28;20394;-62
2021/03/04 08:45:05;;;;;;;3.17;1.95;;;20.90;30.80;;;;;;4991878;28;20457;-62
2021/03/04 08:47:30;;;;;;;2.60;2.00;;;20.90;30.80;;;;;;4990687;28;20395;-62
2021/03/04 08:49:58;;;;;;;2.60;2.10;;;20.90;30.80;;;;;;4992274;28;20410;-63
2021/03/04 08:52:26;;;;;;;3.28;2.13;;;20.90;30.80;;;;;;4990842;28;20399;-64
2021/03/04 08:54:57;;;;;;;2.97;2.17;;;20.80;30.80;;;;;;4990875;28;20409;-64
2021/03/04 08:57:25;;;;;;;2.97;2.20;;;20.80;30.80;;;;;;4991742;28;20879;-63
2021/03/04 09:00:12;;;;;;;3.15;2.15;;;20.90;30.90;;;;;;4992032;28;20430;-63
2021/03/04 09:02:37;;;;;;;3.10;2.00;;;20.90;30.90;;;;;;4992249;28;20387;-63
2021/03/04 09:05:08;;;;;;;3.08;2.10;;;20.80;30.90;;;;;;4991780;28;20434;-62
2021/03/04 09:07:42;;;;;;;3.03;2.20;;;20.80;30.90;;;;;;4992024;28;20395;-63
2021/03/04 09:10:09;;;;;;;3.67;2.40;;;20.80;30.90;;;;;;4992104;28;20437;-63
2021/03/04 09:12:45;;;;;;;3.40;2.20;;;20.80;30.90;;;;;;4991740;28;20398;-63
2021/03/04 09:15:16;;;;;;;3.15;2.20;;;20.80;30.90;;;;;;4991613;28;20453;-62
2021/03/04 09:17:45;;;;;;;3.20;2.70;;;20.80;30.90;;;;;;4990718;28;20448;-63
2021/03/04 09:20:15;;;;;;;3.70;2.35;;;20.80;30.80;;;;;;4991916;28;20416;-64
2021/03/04 09:22:43;;;;;;;3.10;2.10;;;20.80;30.90;;;;;;4991941;28;20453;-63
2021/03/04 09:25:11;;;;;;;3.42;2.30;;;20.80;30.90;;;;;;4991500;28;20509;-63
2021/03/04 09:27:40;;;;;;;3.05;2.20;;;20.80;30.90;;;;;;4991943;28;20930;-63
2021/03/04 09:30:07;;;;;;;3.58;2.35;;;20.80;30.90;;;;;;4991900;28;20829;-63
2021/03/04 09:32:34;;;;;;;3.50;2.20;;;20.80;30.90;;;;;;4993625;28;20877;-63
2021/03/04 09:35:09;;;;;;;2.80;2.03;;;20.80;30.90;;;;;;4995685;28;20391;-63
2021/03/04 09:37:35;;;;;;;3.25;2.30;;;20.80;31.00;;;;;;4995749;28;20395;-63
2021/03/04 09:40:01;;;;;;;2.90;2.10;;;20.80;31.00;;;;;;4995414;28;20665;-62
2021/03/04 09:42:29;;;;;;;3.30;2.07;;;20.80;31.00;;;;;;4995033;28;20398;-62
2021/03/04 09:44:56;;;;;;;3.17;2.10;;;20.80;31.00;;;;;;4995278;28;20510;-62
2021/03/04 09:47:33;;;;;;;3.30;2.25;;;20.80;31.00;;;;;;4994896;28;21449;-62
2021/03/04 09:50:00;;;;;;;3.17;2.30;;;20.80;31.10;;;;;;4995393;28;20482;-62
2021/03/04 09:52:28;;;;;;;3.63;2.22;;;20.80;31.10;;;;;;4995605;28;20386;-63
2021/03/04 09:55:15;;;;;;;3.30;2.00;;;20.80;31.10;;;;;;4995339;28;20444;-63
2021/03/04 09:57:43;;;;;;;2.97;2.10;;;20.70;31.10;;;;;;4995256;28;20405;-62
2021/03/04 10:00:18;;;;;;;2.55;2.10;;;20.80;31.10;;;;;;4995274;28;20477;-63
2021/03/04 10:02:46;;;;;;;3.92;2.13;;;20.80;31.10;;;;;;4995178;28;20402;-62
2021/03/04 10:05:16;;;;;;;3.10;2.38;;;20.80;31.10;;;;;;4994459;28;20418;-63
2021/03/04 10:07:42;;;;;;;2.90;2.10;;;20.70;31.00;;;;;;4995126;28;20466;-62
2021/03/04 10:10:13;;;;;;;3.10;2.30;;;20.80;31.00;;;;;;4995158;28;20511;-62
2021/03/04 10:12:49;;;;;;;2.88;2.13;;;20.80;31.00;;;;;;4994811;28;20402;-62
2021/03/04 10:15:34;;;;;;;3.73;2.40;;;20.80;31.00;;;;;;4994765;28;20501;-63
2021/03/04 10:18:14;;;;;;;4.00;2.13;;;20.80;30.80;;;;;;4995006;28;20389;-62
2021/03/04 10:20:44;;;;;;;2.90;2.15;;;20.80;30.80;;;;;;4994799;28;20398;-63
2021/03/04 10:23:10;;;;;;;2.90;2.08;;;20.80;30.70;;;;;;4994457;28;20389;-63
2021/03/04 10:25:36;;;;;;;3.25;2.20;;;20.80;30.80;;;;;;4994736;28;20429;-63
2021/03/04 10:28:03;;;;;;;2.97;2.10;;;20.80;30.40;;;;;;4994837;28;20394;-63
2021/03/04 10:30:31;;;;;;;3.05;1.98;;;20.70;30.40;;;;;;4994620;28;20426;-63
2021/03/04 10:32:57;;;;;;;3.42;2.00;;;20.80;30.70;;;;;;4994715;28;20386;-63
2021/03/04 10:35:24;;;;;;;3.13;1.90;;;20.70;30.60;;;;;;4994174;28;20398;-63
2021/03/04 10:37:51;;;;;;;3.28;2.20;;;20.70;30.50;;;;;;4994585;28;20433;-63
2021/03/04 10:40:17;;;;;;;2.78;1.80;;;20.70;30.40;;;;;;4994250;28;20877;-63
2021/03/04 10:42:43;;;;;;;3.10;2.05;;;20.70;30.50;;;;;;4993516;28;20430;-63
2021/03/04 10:45:12;;;;;;;3.75;2.05;;;20.80;30.60;;;;;;4993785;28;20481;-63
2021/03/04 10:47:39;;;;;;;3.10;2.20;;;20.70;30.50;;;;;;4994257;28;20409;-63
2021/03/04 10:50:06;;;;;;;2.88;2.05;;;20.70;30.70;;;;;;4994293;28;20469;-62
2021/03/04 10:52:32;;;;;;;3.00;2.05;;;20.70;30.80;;;;;;4994251;28;20859;-63
2021/03/04 10:54:58;;;;;;;2.80;2.00;;;20.70;30.90;;;;;;4994098;28;20454;-63
2021/03/04 10:57:23;;;;;;;2.80;2.00;;;20.70;31.00;;;;;;4993815;28;20390;-62
2021/03/04 10:59:49;;;;;;;2.72;1.80;;;20.70;31.00;;;;;;4994124;28;20395;-63
2021/03/04 11:02:15;;;;;;;2.78;2.00;;;20.70;31.10;;;;;;4994203;28;20509;-63
2021/03/04 11:04:41;;;;;;;2.90;1.92;;;20.70;31.10;;;;;;4993942;28;20430;-63
2021/03/04 11:07:07;;;;;;;3.17;2.00;;;20.70;31.10;;;;;;4993935;28;20391;-63
2021/03/04 11:09:33;;;;;;;3.10;2.00;;;20.70;31.10;;;;;;4993747;28;20485;-63
2021/03/04 11:11:59;;;;;;;3.05;1.90;;;20.70;31.10;;;;;;5008833;28;20400;-63
2021/03/04 11:14:25;;;;;;;3.03;2.17;;;20.70;31.10;;;;;;4993712;28;20531;-63
2021/03/04 11:16:50;;;;;;;2.80;1.92;;;20.70;31.10;;;;;;4993727;28;20433;-63
2021/03/04 11:19:16;;;;;;;3.10;2.03;;;20.70;31.10;;;;;;4993332;28;20406;-62
2021/03/04 11:21:43;;;;;;;2.97;2.00;;;20.70;31.10;;;;;;4993777;28;20837;-63
2021/03/04 11:24:09;;;;;;;2.80;2.00;;;20.70;31.20;;;;;;4993865;28;20813;-63
2021/03/04 11:26:38;;;;;;;2.90;1.83;;;20.70;31.20;;;;;;4993585;28;20901;-63
2021/03/04 11:29:10;;;;;;;3.20;2.03;;;20.60;31.10;;;;;;4993540;28;20387;-63
2021/03/04 11:31:37;;;;;;;2.67;1.83;;;20.70;31.20;;;;;;4993297;28;20394;-63
2021/03/04 11:34:04;;;;;;;2.67;1.90;;;20.70;31.20;;;;;;4993533;28;20433;-63
2021/03/04 11:36:30;;;;;;;2.90;1.90;;;20.60;31.10;;;;;;4993432;28;20399;-63
2021/03/04 11:38:56;;;;;;;3.40;2.10;;;20.60;31.10;;;;;;4993530;28;20422;-63
2021/03/04 11:41:22;;;;;;;3.08;2.00;;;20.70;31.80;;;;;;4992599;28;20422;-62
2021/03/04 11:43:48;;;;;;;2.80;1.90;;;20.70;31.10;;;;;;4993238;28;20426;-62
2021/03/04 11:46:14;;;;;;;2.83;1.90;;;20.60;31.10;;;;;;4993255;28;20863;-63
2021/03/04 11:48:40;;;;;;;2.72;1.95;;;20.70;31.20;;;;;;4993416;28;20398;-62
2021/03/04 11:51:06;;;;;;;3.10;2.10;;;20.70;31.10;;;;;;4993275;28;20743;-63
2021/03/04 11:53:32;;;;;;;3.08;1.80;;;20.60;31.10;;;;;;4992666;28;20394;-63
2021/03/04 11:55:59;;;;;;;2.83;1.75;;;20.60;30.90;;;;;;4992311;28;20390;-62
2021/03/04 11:58:25;;;;;;;2.90;2.00;;;20.60;30.80;;;;;;4993073;28;20433;-62
2021/03/04 12:00:52;;;;;;;2.90;1.95;;;20.60;30.80;;;;;;4992918;28;20386;-63
2021/03/04 12:03:17;;;;;;;3.13;1.90;;;20.60;30.90;;;;;;4992593;28;20500;-63
2021/03/04 12:05:43;;;;;;;2.40;1.80;;;20.60;31.60;;;;;;4992849;28;20906;-63
2021/03/04 12:08:09;;;;;;;2.70;1.87;;;20.60;31.00;;;;;;4992912;28;20449;-64
2021/03/04 12:10:34;;;;;;;2.30;1.75;;;20.60;31.10;;;;;;4992791;28;20403;-63
2021/03/04 12:13:00;;;;;;;2.73;1.80;;;20.60;31.20;;;;;;4992544;28;20912;-64
2021/03/04 12:15:26;;;;;;;3.10;1.85;;;20.60;31.20;;;;;;4992574;28;20545;-63
2021/03/04 12:17:51;;;;;;;2.65;1.80;;;20.60;31.20;;;;;;4992718;28;20866;-64
2021/03/04 12:20:17;;;;;;;2.70;1.90;;;20.60;31.10;;;;;;4992656;28;20449;-63
2021/03/04 12:22:43;;;;;;;2.83;1.83;;;20.60;31.20;;;;;;4992650;28;20406;-63
2021/03/04 12:25:09;;;;;;;2.60;1.70;;;20.60;31.20;;;;;;4992541;28;20972;-63
2021/03/04 12:27:35;;;;;;;2.53;1.85;;;20.60;31.30;;;;;;4990357;28;20412;-63
2021/03/04 12:30:01;;;;;;;2.80;1.90;;;20.60;31.10;;;;;;4992225;28;20834;-63
2021/03/04 12:32:26;;;;;;;2.80;1.80;;;20.60;31.00;;;;;;4992562;28;20390;-63
2021/03/04 12:34:52;;;;;;;2.50;1.70;;;20.60;31.00;;;;;;4992245;28;20395;-62
2021/03/04 12:37:18;;;;;;;2.50;1.77;;;20.60;31.10;;;;;;4991925;28;20394;-62
2021/03/04 12:39:44;;;;;;;2.90;1.85;;;20.60;31.20;;;;;;4992352;28;20390;-62
2021/03/04 12:42:11;;;;;;;2.80;1.70;;;20.60;31.20;;;;;;4991888;28;20477;-62
2021/03/04 12:44:36;;;;;;;2.40;1.60;;;20.60;31.30;;;;;;4990965;28;20422;-63
2021/03/04 12:47:02;;;;;;;2.23;1.60;;;20.60;31.20;;;;;;4992235;28;20887;-64
2021/03/04 12:49:28;;;;;;;3.20;1.90;;;20.60;31.20;;;;;;4991819;28;20434;-63
2021/03/04 12:51:53;;;;;;;2.55;1.80;;;20.60;31.20;;;;;;4992369;28;20819;-63
2021/03/04 12:54:19;;;;;;;2.73;1.80;;;20.60;31.20;;;;;;4992226;28;20405;-63
2021/03/04 12:56:45;;;;;;;2.40;1.60;;;20.60;31.10;;;;;;4992146;28;20398;-62